Time;durP1;ratioP1;P1;durP2;ratioP2;P2;SDS_P1;SDS_P2;PMS_P1;PMS_P2;Temp;Humidity;BMP_temperature;BMP_pressure;BME280_temperature;BME280_humidity;BME280_pressure;Samples;Min_cycle;Max_cycle;Signal;HPM_P1;HPM_P2
2023/09/06 00:02:07;;;;;;;;;;;20.60;99.90;;;;;;5014613;28;19924;-58
2023/09/06 00:04:33;;;;;;;;;;;20.60;99.90;;;;;;4981248;28;19924;-58
2023/09/06 00:06:59;;;;;;;;;;;20.60;99.90;;;;;;5015077;28;20383;-59
2023/09/06 00:09:25;;;;;;;;;;;20.60;99.90;;;;;;5015322;28;19918;-58
2023/09/06 00:11:50;;;;;;;;;;;20.60;99.90;;;;;;5015216;28;19940;-58
2023/09/06 00:14:16;;;;;;;;;;;20.60;99.90;;;;;;5005901;28;19922;-58
2023/09/06 00:16:42;;;;;;;;;;;20.60;99.90;;;;;;5008886;28;19921;-58
2023/09/06 00:19:07;;;;;;;;;;;20.60;99.90;;;;;;5002727;28;19961;-58
2023/09/06 00:21:37;;;;;;;;;;;20.60;99.90;;;;;;5014835;28;19917;-58
2023/09/06 00:24:03;;;;;;;;;;;20.60;99.90;;;;;;5008542;28;20291;-59
2023/09/06 00:26:29;;;;;;;;;;;20.60;99.90;;;;;;5001087;28;19948;-58
2023/09/06 00:28:54;;;;;;;;;;;20.60;99.90;;;;;;5006114;28;20395;-58
2023/09/06 00:31:20;;;;;;;;;;;20.50;99.90;;;;;;4996216;28;20331;-58
2023/09/06 00:33:46;;;;;;;;;;;20.50;99.90;;;;;;5002820;28;19921;-59
2023/09/06 00:36:11;;;;;;;;;;;20.60;99.90;;;;;;5007650;28;19965;-60
2023/09/06 00:38:38;;;;;;;;;;;20.50;99.90;;;;;;5014728;28;19917;-59
2023/09/06 00:41:04;;;;;;;;;;;20.60;99.90;;;;;;5014890;28;19971;-60
2023/09/06 00:43:30;;;;;;;;;;;20.50;99.90;;;;;;5005826;28;19921;-60
2023/09/06 00:45:56;;;;;;;;;;;20.50;99.90;;;;;;5014512;28;19921;-60
2023/09/06 00:48:22;;;;;;;;;;;20.50;99.90;;;;;;4994156;28;19918;-60
2023/09/06 00:50:51;;;;;;;;;;;20.50;99.90;;;;;;4994747;28;19972;-59
2023/09/06 00:53:18;;;;;;;;;;;20.50;99.90;;;;;;4994932;28;19922;-58
2023/09/06 00:55:44;;;;;;;;;;;20.50;99.90;;;;;;4994098;28;19921;-58
2023/09/06 00:58:12;;;;;;;;;;;20.50;99.90;;;;;;4994615;28;19945;-58
2023/09/06 01:00:38;;;;;;;;;;;20.50;99.90;;;;;;4994369;28;19925;-59
2023/09/06 01:03:03;;;;;;;;;;;20.50;99.90;;;;;;4994861;28;19918;-59
2023/09/06 01:05:33;;;;;;;;;;;20.40;99.90;;;;;;4994118;28;20311;-58
2023/09/06 01:08:00;;;;;;;;;;;20.40;99.90;;;;;;4994666;28;19917;-59
2023/09/06 01:10:26;;;;;;;;;;;20.40;99.90;;;;;;4975877;28;19921;-58
2023/09/06 01:12:55;;;;;;;;;;;20.30;99.90;;;;;;4994245;28;19918;-59
2023/09/06 01:15:21;;;;;;;;;;;20.30;99.90;;;;;;4994293;28;20016;-59
2023/09/06 01:17:48;;;;;;;;;;;20.30;99.90;;;;;;4994209;28;19996;-59
2023/09/06 01:20:17;;;;;;;;;;;20.30;99.90;;;;;;4994255;28;19917;-59
2023/09/06 01:22:53;;;;;;;;;;;20.20;99.90;;;;;;4994189;28;20004;-59
2023/09/06 01:25:19;;;;;;;;;;;20.20;99.90;;;;;;4994062;28;19964;-58
2023/09/06 01:27:45;;;;;;;;;;;20.20;99.90;;;;;;4993692;28;19921;-62
2023/09/06 01:30:11;;;;;;;;;;;20.20;99.90;;;;;;4994153;28;19918;-59
2023/09/06 01:32:37;;;;;;;;;;;20.10;99.90;;;;;;4994093;28;19918;-59
2023/09/06 01:35:03;;;;;;;;;;;20.10;99.90;;;;;;4994057;28;19932;-59
2023/09/06 01:37:29;;;;;;;;;;;20.10;99.90;;;;;;4994080;28;19922;-58
2023/09/06 01:39:55;;;;;;;;;;;20.00;99.90;;;;;;4993729;28;19926;-58
2023/09/06 01:42:22;;;;;;;;;;;20.00;99.90;;;;;;4994003;28;19918;-59
2023/09/06 01:44:48;;;;;;;;;;;20.00;99.90;;;;;;4993747;28;20012;-59
2023/09/06 01:47:13;;;;;;;;;;;20.00;99.90;;;;;;4993336;28;20025;-58
2023/09/06 01:49:39;;;;;;;;;;;19.90;99.90;;;;;;4994094;28;19925;-59
2023/09/06 01:52:05;;;;;;;;;;;19.90;99.90;;;;;;4993540;28;19921;-59
2023/09/06 01:54:30;;;;;;;;;;;19.80;99.90;;;;;;4993099;28;19922;-59
2023/09/06 01:56:56;;;;;;;;;;;19.80;99.90;;;;;;4975767;28;19918;-58
2023/09/06 01:59:21;;;;;;;;;;;19.70;99.90;;;;;;4993611;28;19917;-58
2023/09/06 02:01:54;;;;;;;;;;;19.70;99.90;;;;;;4993033;28;19941;-57
2023/09/06 02:04:19;;;;;;;;;;;19.60;99.90;;;;;;4993621;28;19949;-58
2023/09/06 02:06:45;;;;;;;;;;;19.70;99.90;;;;;;4992824;28;19972;-58
2023/09/06 02:09:10;;;;;;;;;;;19.60;99.90;;;;;;4993388;28;19918;-58
2023/09/06 02:11:36;;;;;;;;;;;19.50;99.90;;;;;;4992847;28;19925;-59
2023/09/06 02:14:01;;;;;;;;;;;19.50;99.90;;;;;;4992908;28;20423;-59
2023/09/06 02:16:28;;;;;;;;;;;19.50;99.90;;;;;;4992922;28;20008;-58
2023/09/06 02:18:53;;;;;;;;;;;19.50;99.90;;;;;;4993245;28;19992;-58
2023/09/06 02:21:19;;;;;;;;;;;19.50;99.90;;;;;;4992981;28;20344;-57
2023/09/06 02:23:44;;;;;;;;;;;19.40;99.90;;;;;;4993164;28;19922;-58
2023/09/06 02:26:10;;;;;;;;;;;19.40;99.90;;;;;;4992929;28;19964;-57
2023/09/06 02:28:36;;;;;;;;;;;19.40;99.90;;;;;;4992993;28;19921;-59
2023/09/06 02:31:02;;;;;;;;;;;19.40;99.90;;;;;;4992986;28;19921;-58
2023/09/06 02:33:28;;;;;;;;;;;19.40;99.90;;;;;;4993318;28;20316;-58
2023/09/06 02:35:53;;;;;;;;;;;19.40;99.90;;;;;;4992359;28;20402;-58
2023/09/06 02:38:19;;;;;;;;;;;19.30;99.90;;;;;;4992839;28;19972;-57
2023/09/06 02:40:44;;;;;;;;;;;19.30;99.90;;;;;;4992712;28;19921;-59
2023/09/06 02:43:13;;;;;;;;;;;19.30;99.90;;;;;;4992788;28;19925;-58
2023/09/06 02:45:39;;;;;;;;;;;19.30;99.90;;;;;;4992294;28;19924;-58
2023/09/06 02:48:12;;;;;;;;;;;19.20;99.90;;;;;;4992646;28;20364;-58
2023/09/06 02:50:39;;;;;;;;;;;19.30;99.90;;;;;;4992683;28;19925;-58
2023/09/06 02:53:15;;;;;;;;;;;19.30;99.90;;;;;;4992407;28;20141;-58
2023/09/06 02:55:43;;;;;;;;;;;19.30;99.90;;;;;;4992593;28;20004;-58
2023/09/06 02:58:09;;;;;;;;;;;19.20;99.90;;;;;;4974454;28;20371;-59
2023/09/06 03:00:36;;;;;;;;;;;19.20;99.90;;;;;;4992449;28;19924;-59
2023/09/06 03:03:05;;;;;;;;;;;19.20;99.90;;;;;;4992637;28;19960;-59
2023/09/06 03:05:31;;;;;;;;;;;19.20;99.90;;;;;;4991642;28;20343;-58
2023/09/06 03:07:56;;;;;;;;;;;19.10;99.90;;;;;;4992647;28;19954;-57
2023/09/06 03:10:23;;;;;;;;;;;19.20;99.90;;;;;;4992158;28;20076;-59
2023/09/06 03:12:55;;;;;;;;;;;19.20;99.90;;;;;;4992335;28;19917;-58
2023/09/06 03:15:23;;;;;;;;;;;19.10;99.90;;;;;;4992543;28;19929;-58
2023/09/06 03:17:51;;;;;;;;;;;19.00;99.90;;;;;;4989611;28;19918;-58
2023/09/06 03:20:22;;;;;;;;;;;19.00;99.90;;;;;;4992629;28;19918;-58
2023/09/06 03:22:50;;;;;;;;;;;19.00;99.90;;;;;;4991970;28;19918;-58
2023/09/06 03:25:16;;;;;;;;;;;19.00;99.90;;;;;;4992272;28;19921;-58
2023/09/06 03:27:42;;;;;;;;;;;19.00;99.90;;;;;;4974720;28;20004;-58
2023/09/06 03:30:08;;;;;;;;;;;18.90;99.90;;;;;;4990569;28;20049;-59
2023/09/06 03:32:33;;;;;;;;;;;18.90;99.90;;;;;;4992361;28;19922;-58
2023/09/06 03:35:00;;;;;;;;;;;18.90;99.90;;;;;;4995169;28;19922;-58
2023/09/06 03:37:28;;;;;;;;;;;18.80;99.90;;;;;;4996045;28;19921;-58
2023/09/06 03:39:54;;;;;;;;;;;18.80;99.90;;;;;;4996282;28;20012;-59
2023/09/06 03:42:20;;;;;;;;;;;18.80;99.90;;;;;;4995945;28;19940;-58
2023/09/06 03:44:46;;;;;;;;;;;18.70;99.90;;;;;;4995914;28;20368;-58
2023/09/06 03:47:15;;;;;;;;;;;18.70;99.90;;;;;;4996177;28;19918;-58
2023/09/06 03:49:41;;;;;;;;;;;18.70;99.90;;;;;;4995871;28;20398;-58
2023/09/06 03:52:08;;;;;;;;;;;18.70;99.90;;;;;;4995967;28;19968;-58
2023/09/06 03:54:34;;;;;;;;;;;18.70;99.90;;;;;;4995660;28;19922;-58
2023/09/06 03:57:03;;;;;;;;;;;18.70;99.90;;;;;;4995139;28;20008;-57
2023/09/06 03:59:30;;;;;;;;;;;18.70;99.90;;;;;;4995380;28;19925;-58
2023/09/06 04:01:55;;;;;;;;;;;18.60;99.90;;;;;;4995133;28;20296;-58
2023/09/06 04:04:21;;;;;;;;;;;18.60;99.90;;;;;;4995770;28;19918;-58
2023/09/06 04:06:47;;;;;;;;;;;18.60;99.90;;;;;;4995443;28;19928;-57
2023/09/06 04:09:13;;;;;;;;;;;18.60;99.90;;;;;;4995246;28;19918;-58
2023/09/06 04:11:39;;;;;;;;;;;18.50;99.90;;;;;;4995906;28;19941;-58
2023/09/06 04:14:05;;;;;;;;;;;18.60;99.90;;;;;;4994972;28;19932;-58
2023/09/06 04:16:31;;;;;;;;;;;18.50;99.90;;;;;;4993763;28;19917;-58
2023/09/06 04:18:56;;;;;;;;;;;18.50;99.90;;;;;;4995355;28;19972;-57
2023/09/06 04:21:22;;;;;;;;;;;18.40;99.90;;;;;;4995289;28;20013;-57
2023/09/06 04:23:48;;;;;;;;;;;18.40;99.90;;;;;;4995503;28;19965;-58
2023/09/06 04:26:14;;;;;;;;;;;18.40;99.90;;;;;;4995082;28;19917;-58
2023/09/06 04:28:40;;;;;;;;;;;18.40;99.90;;;;;;4995025;28;20395;-58
2023/09/06 04:31:06;;;;;;;;;;;18.30;99.90;;;;;;4994864;28;19925;-58
2023/09/06 04:33:31;;;;;;;;;;;18.30;99.90;;;;;;4995293;28;19960;-58
2023/09/06 04:35:57;;;;;;;;;;;18.30;99.90;;;;;;4994690;28;19929;-58
2023/09/06 04:38:26;;;;;;;;;;;18.30;99.90;;;;;;4995313;28;19972;-58
2023/09/06 04:40:54;;;;;;;;;;;18.30;99.90;;;;;;4995101;28;19918;-58
2023/09/06 04:43:22;;;;;;;;;;;18.30;99.90;;;;;;4994900;28;20760;-58
2023/09/06 04:45:48;;;;;;;;;;;18.20;99.90;;;;;;4993543;28;19928;-58
2023/09/06 04:48:16;;;;;;;;;;;18.20;99.90;;;;;;4994693;28;20467;-58
2023/09/06 04:50:43;;;;;;;;;;;18.30;99.90;;;;;;4994962;28;19922;-58
2023/09/06 04:53:09;;;;;;;;;;;18.20;99.90;;;;;;4994805;28;20287;-59
2023/09/06 04:55:37;;;;;;;;;;;18.20;99.90;;;;;;4994401;28;20040;-58
2023/09/06 04:58:03;;;;;;;;;;;18.20;99.90;;;;;;4994722;28;20066;-57
2023/09/06 05:00:35;;;;;;;;;;;18.20;99.90;;;;;;4994357;28;19922;-58
2023/09/06 05:03:00;;;;;;;;;;;18.20;99.90;;;;;;4977396;28;19984;-57
2023/09/06 05:05:27;;;;;;;;;;;18.20;99.90;;;;;;4994061;28;19918;-58
2023/09/06 05:07:53;;;;;;;;;;;18.20;99.90;;;;;;4994317;28;19949;-59
2023/09/06 05:10:19;;;;;;;;;;;18.20;99.90;;;;;;4994763;28;20347;-58
2023/09/06 05:12:45;;;;;;;;;;;18.20;99.90;;;;;;4994659;28;19972;-58
2023/09/06 05:15:12;;;;;;;;;;;18.20;99.90;;;;;;4980679;28;19926;-58
2023/09/06 05:17:38;;;;;;;;;;;18.20;99.90;;;;;;4994586;28;20347;-58
2023/09/06 05:20:22;;;;;;;;;;;18.30;99.90;;;;;;4989053;28;19924;-59
2023/09/06 05:22:48;;;;;;;;;;;18.30;99.90;;;;;;4988329;28;20391;-59
2023/09/06 05:25:13;;;;;;;;;;;18.40;99.90;;;;;;4993903;28;19922;-59
2023/09/06 05:27:39;;;;;;;;;;;18.40;99.90;;;;;;4988203;28;19997;-58
2023/09/06 05:30:05;;;;;;;;;;;18.50;99.90;;;;;;4993735;28;19933;-58
2023/09/06 05:32:30;;;;;;;;;;;18.50;99.90;;;;;;4993867;28;19924;-58
2023/09/06 05:34:56;;;;;;;;;;;18.60;99.90;;;;;;4986086;28;19922;-58
2023/09/06 05:37:24;;;;;;;;;;;18.70;99.90;;;;;;4976674;28;19922;-58
2023/09/06 05:39:50;;;;;;;;;;;18.70;99.90;;;;;;4992505;28;19918;-58
2023/09/06 05:42:16;;;;;;;;;;;18.80;99.90;;;;;;4993642;28;20366;-59
2023/09/06 05:44:42;;;;;;;;;;;18.80;99.90;;;;;;4993774;28;19972;-57
2023/09/06 05:47:07;;;;;;;;;;;18.90;99.90;;;;;;4993862;28;19918;-58
2023/09/06 05:49:33;;;;;;;;;;;19.00;99.90;;;;;;4993922;28;19917;-57
2023/09/06 05:51:58;;;;;;;;;;;19.00;99.90;;;;;;4993522;28;19918;-58
2023/09/06 05:54:24;;;;;;;;;;;19.00;99.90;;;;;;4993649;28;19922;-58
2023/09/06 05:56:50;;;;;;;;;;;19.10;99.90;;;;;;4990682;28;19921;-57
2023/09/06 05:59:16;;;;;;;;;;;19.20;99.90;;;;;;4990419;28;20012;-58
2023/09/06 06:01:42;;;;;;;;;;;19.30;99.90;;;;;;4993033;28;20008;-59
2023/09/06 06:04:07;;;;;;;;;;;19.30;99.90;;;;;;4990284;28;20347;-58
2023/09/06 06:06:34;;;;;;;;;;;19.40;99.90;;;;;;4993126;28;20034;-58
2023/09/06 06:09:00;;;;;;;;;;;19.50;99.90;;;;;;4993643;28;20019;-57
2023/09/06 06:11:26;;;;;;;;;;;19.60;99.90;;;;;;4993222;28;19965;-58
2023/09/06 06:13:51;;;;;;;;;;;19.70;99.90;;;;;;4993261;28;19925;-58
2023/09/06 06:16:17;;;;;;;;;;;19.80;99.90;;;;;;4989154;28;19922;-58
2023/09/06 06:18:42;;;;;;;;;;;19.80;99.90;;;;;;4993085;28;19924;-57
2023/09/06 06:21:10;;;;;;;;;;;20.00;99.90;;;;;;4991616;28;19917;-58
2023/09/06 06:23:36;;;;;;;;;;;20.10;99.90;;;;;;4993333;28;19918;-59
2023/09/06 06:26:01;;;;;;;;;;;20.10;99.90;;;;;;4991131;28;20332;-59
2023/09/06 06:28:27;;;;;;;;;;;20.30;99.90;;;;;;4992995;28;19918;-58
2023/09/06 06:30:52;;;;;;;;;;;20.30;99.90;;;;;;4992879;28;20275;-58
2023/09/06 06:33:18;;;;;;;;;;;20.40;99.90;;;;;;4981441;28;19918;-58
2023/09/06 06:35:44;;;;;;;;;;;20.40;99.90;;;;;;4993077;28;19921;-58
2023/09/06 06:38:09;;;;;;;;;;;20.60;99.90;;;;;;4991333;28;19925;-59
2023/09/06 06:40:36;;;;;;;;;;;20.70;99.90;;;;;;4991995;28;20005;-58
2023/09/06 06:43:02;;;;;;;;;;;20.80;99.90;;;;;;4993195;28;20271;-58
2023/09/06 06:45:27;;;;;;;;;;;20.90;99.90;;;;;;4993196;28;19918;-59
2023/09/06 06:47:53;;;;;;;;;;;21.00;99.90;;;;;;4992926;28;20257;-58
2023/09/06 06:50:19;;;;;;;;;;;21.10;99.90;;;;;;4992926;28;19917;-58
2023/09/06 06:52:45;;;;;;;;;;;21.30;99.90;;;;;;4991047;28;19918;-58
2023/09/06 06:55:10;;;;;;;;;;;21.40;99.90;;;;;;4992412;28;19929;-56
2023/09/06 06:57:37;;;;;;;;;;;21.40;99.90;;;;;;4985481;28;19917;-58
2023/09/06 07:00:06;;;;;;;;;;;21.60;99.90;;;;;;4992652;28;19971;-58
2023/09/06 07:02:32;;;;;;;;;;;21.70;99.90;;;;;;4989817;28;20364;-58
2023/09/06 07:04:57;;;;;;;;;;;21.80;99.90;;;;;;4988351;28;19918;-58
2023/09/06 07:07:24;;;;;;;;;;;21.90;99.90;;;;;;4992496;28;20455;-59
2023/09/06 07:09:50;;;;;;;;;;;22.00;99.90;;;;;;4995297;28;19917;-58
2023/09/06 07:12:15;;;;;;;;;;;22.10;99.90;;;;;;4996440;28;19928;-59
2023/09/06 07:14:42;;;;;;;;;;;22.20;99.90;;;;;;4996663;28;19938;-59
2023/09/06 07:17:07;;;;;;;;;;;22.30;99.90;;;;;;4979151;28;19924;-57
2023/09/06 07:19:33;;;;;;;;;;;22.40;99.90;;;;;;4996340;28;19917;-58
2023/09/06 07:22:00;;;;;;;;;;;22.50;99.90;;;;;;4996295;28;20005;-59
2023/09/06 07:24:26;;;;;;;;;;;22.70;99.90;;;;;;4996100;28;19926;-59
2023/09/06 07:26:51;;;;;;;;;;;22.80;99.90;;;;;;4995830;28;19924;-59
2023/09/06 07:29:18;;;;;;;;;;;22.80;99.90;;;;;;4989878;28;20020;-59
2023/09/06 07:31:44;;;;;;;;;;;22.90;99.90;;;;;;4996286;28;19929;-59
2023/09/06 07:34:09;;;;;;;;;;;23.00;99.90;;;;;;4996227;28;19972;-59
2023/09/06 07:36:35;;;;;;;;;;;23.20;99.90;;;;;;4996603;28;19930;-59
2023/09/06 07:39:01;;;;;;;;;;;23.30;99.90;;;;;;4996258;28;19968;-57
2023/09/06 07:41:27;;;;;;;;;;;23.30;99.90;;;;;;4995856;28;19917;-59
2023/09/06 07:43:52;;;;;;;;;;;23.40;99.90;;;;;;4996309;28;19918;-59
2023/09/06 07:46:18;;;;;;;;;;;23.50;99.90;;;;;;4995949;28;19918;-58
2023/09/06 07:48:44;;;;;;;;;;;23.60;99.90;;;;;;4978623;28;19961;-57
2023/09/06 07:51:10;;;;;;;;;;;23.70;99.90;;;;;;4994514;28;19961;-58
2023/09/06 07:53:36;;;;;;;;;;;23.80;99.90;;;;;;4995822;28;20356;-59
2023/09/06 07:56:02;;;;;;;;;;;23.90;99.90;;;;;;4990415;28;19926;-59
2023/09/06 07:58:27;;;;;;;;;;;24.00;99.90;;;;;;4987582;28;20012;-59
2023/09/06 08:00:53;;;;;;;;;;;24.10;99.90;;;;;;4988532;28;19918;-61
2023/09/06 08:03:18;;;;;;;;;;;24.20;99.90;;;;;;4991549;28;19960;-59
2023/09/06 08:05:46;;;;;;;;;;;24.30;99.90;;;;;;4994097;28;20636;-59
2023/09/06 08:08:11;;;;;;;;;;;24.40;99.90;;;;;;4995421;28;19917;-59
2023/09/06 08:10:40;;;;;;;;;;;24.40;99.90;;;;;;4978000;28;19918;-59
2023/09/06 08:13:05;;;;;;;;;;;24.50;99.90;;;;;;4995509;28;19921;-59
2023/09/06 08:15:35;;;;;;;;;;;24.50;99.90;;;;;;4995674;28;20395;-59
2023/09/06 08:18:01;;;;;;;;;;;24.60;99.90;;;;;;4995380;28;19982;-59
2023/09/06 08:20:27;;;;;;;;;;;24.70;99.90;;;;;;4994965;28;19918;-59
2023/09/06 08:22:52;;;;;;;;;;;24.70;99.90;;;;;;4994952;28;19918;-59
2023/09/06 08:25:18;;;;;;;;;;;24.80;99.90;;;;;;4993775;28;20012;-59
2023/09/06 08:27:44;;;;;;;;;;;24.90;99.90;;;;;;4971675;28;19944;-58
2023/09/06 08:30:13;;;;;;;;;;;25.10;99.90;;;;;;4995244;28;20008;-59
2023/09/06 08:32:40;;;;;;;;;;;25.20;99.90;;;;;;4986764;28;19921;-58
2023/09/06 08:35:06;;;;;;;;;;;25.30;99.90;;;;;;4982241;28;20395;-60
2023/09/06 08:37:32;;;;;;;;;;;25.50;99.90;;;;;;4994565;28;19917;-59
2023/09/06 08:39:58;;;;;;;;;;;25.50;99.90;;;;;;4994750;28;19921;-59
2023/09/06 08:42:24;;;;;;;;;;;25.60;99.90;;;;;;4994447;28;19928;-59
2023/09/06 08:44:50;;;;;;;;;;;25.80;99.90;;;;;;4995049;28;19922;-58
2023/09/06 08:47:18;;;;;;;;;;;25.90;99.90;;;;;;4992115;28;20319;-57
2023/09/06 08:49:46;;;;;;;;;;;25.90;99.90;;;;;;4994964;28;20399;-59
2023/09/06 08:52:14;;;;;;;;;;;26.00;99.90;;;;;;4994797;28;19922;-59
2023/09/06 08:54:41;;;;;;;;;;;26.20;99.90;;;;;;4993856;28;19929;-59
2023/09/06 08:57:07;;;;;;;;;;;26.20;99.90;;;;;;4994713;28;19924;-58
2023/09/06 08:59:35;;;;;;;;;;;26.40;99.90;;;;;;4994312;28;19922;-58
2023/09/06 09:02:01;;;;;;;;;;;26.50;99.90;;;;;;4994359;28;19918;-59
2023/09/06 09:04:28;;;;;;;;;;;26.60;99.90;;;;;;4994656;28;19929;-59
2023/09/06 09:06:54;;;;;;;;;;;26.70;99.90;;;;;;4994396;28;19926;-59
2023/09/06 09:09:20;;;;;;;;;;;26.90;99.90;;;;;;4994584;28;20005;-59
2023/09/06 09:11:49;;;;;;;;;;;27.10;99.90;;;;;;4994335;28;19929;-59
2023/09/06 09:14:19;;;;;;;;;;;27.40;99.90;;;;;;4994631;28;19925;-58
2023/09/06 09:16:44;;;;;;;;;;;27.70;99.90;;;;;;4994421;28;19929;-58
2023/09/06 09:19:10;;;;;;;;;;;27.80;99.90;;;;;;4994551;28;20004;-59
2023/09/06 09:21:39;;;;;;;;;;;28.00;99.90;;;;;;4994706;28;20284;-59
2023/09/06 09:24:05;;;;;;;;;;;27.90;99.90;;;;;;4994527;28;20020;-58
2023/09/06 09:26:32;;;;;;;;;;;28.20;99.90;;;;;;4993965;28;20008;-58
2023/09/06 09:29:01;;;;;;;;;;;28.00;99.90;;;;;;4993782;28;20360;-59
2023/09/06 09:31:27;;;;;;;;;;;28.00;99.90;;;;;;4993326;28;19945;-59
2023/09/06 09:33:54;;;;;;;;;;;28.00;99.90;;;;;;4994009;28;20331;-59
2023/09/06 09:36:19;;;;;;;;;;;27.90;99.90;;;;;;4976463;28;19921;-58
2023/09/06 09:38:49;;;;;;;;;;;27.80;99.90;;;;;;4994115;28;19944;-58
2023/09/06 09:41:15;;;;;;;;;;;27.90;99.90;;;;;;4993593;28;20395;-59
2023/09/06 09:43:41;;;;;;;;;;;27.70;99.90;;;;;;4993876;28;19918;-60
2023/09/06 09:46:07;;;;;;;;;;;27.80;99.90;;;;;;4993727;28;19925;-59
2023/09/06 09:48:33;;;;;;;;;;;27.90;99.90;;;;;;4993635;28;20355;-59
2023/09/06 09:51:07;;;;;;;;;;;28.00;99.90;;;;;;4993739;28;20351;-58
2023/09/06 09:53:33;;;;;;;;;;;28.00;99.90;;;;;;4975813;28;20369;-59
2023/09/06 09:56:00;;;;;;;;;;;28.10;99.90;;;;;;4992899;28;19928;-58
2023/09/06 09:58:27;;;;;;;;;;;28.10;99.90;;;;;;4993286;28;19964;-58
2023/09/06 10:00:53;;;;;;;;;;;28.10;99.90;;;;;;4993290;28;19918;-59
2023/09/06 10:03:21;;;;;;;;;;;28.10;99.90;;;;;;4993658;28;19929;-58
2023/09/06 10:05:47;;;;;;;;;;;28.30;99.90;;;;;;4993108;28;19922;-58
2023/09/06 10:08:13;;;;;;;;;;;28.30;99.90;;;;;;4993113;28;19925;-59
2023/09/06 10:10:39;;;;;;;;;;;28.40;99.90;;;;;;4991919;28;19940;-58
2023/09/06 10:13:07;;;;;;;;;;;28.50;99.90;;;;;;4993390;28;19924;-59
2023/09/06 10:15:33;;;;;;;;;;;28.80;99.90;;;;;;4992888;28;19969;-59
2023/09/06 10:17:59;;;;;;;;;;;29.00;99.90;;;;;;4975346;28;19983;-59
2023/09/06 10:20:26;;;;;;;;;;;29.20;99.90;;;;;;4993167;28;19962;-58
2023/09/06 10:22:55;;;;;;;;;;;29.20;99.90;;;;;;4993155;28;20004;-58
2023/09/06 10:25:20;;;;;;;;;;;29.30;99.90;;;;;;4993030;28;20467;-59
2023/09/06 10:27:47;;;;;;;;;;;29.30;99.90;;;;;;4992809;28;20000;-58
2023/09/06 10:30:19;;;;;;;;;;;29.30;99.90;;;;;;4992949;28;20008;-59
2023/09/06 10:32:46;;;;;;;;;;;29.30;99.90;;;;;;4992797;28;20427;-59
2023/09/06 10:35:22;;;;;;;;;;;29.20;99.90;;;;;;4975479;28;19922;-58
2023/09/06 10:38:04;;;;;;;;;;;29.40;99.90;;;;;;4975497;28;19922;-59
2023/09/06 10:40:51;;;;;;;;;;;29.50;99.90;;;;;;4992686;28;19917;-59
2023/09/06 10:43:17;;;;;;;;;;;29.40;99.90;;;;;;4992952;28;19972;-59
2023/09/06 10:46:01;;;;;;;;;;;29.50;99.90;;;;;;4993126;28;19961;-58
2023/09/06 10:48:27;;;;;;;;;;;29.40;99.90;;;;;;4992878;28;19972;-59
2023/09/06 10:51:12;;;;;;;;;;;29.60;99.90;;;;;;4992715;28;19918;-59
2023/09/06 10:53:38;;;;;;;;;;;29.50;99.90;;;;;;4992952;28;20316;-60
2023/09/06 10:56:05;;;;;;;;;;;29.50;99.90;;;;;;4992988;28;19977;-59
2023/09/06 10:58:34;;;;;;;;;;;29.60;99.90;;;;;;4992664;28;19924;-59
2023/09/06 11:01:09;;;;;;;;;;;29.60;99.90;;;;;;4993448;28;19921;-59
2023/09/06 11:03:34;;;;;;;;;;;29.70;99.90;;;;;;4992441;28;19918;-59
2023/09/06 11:06:04;;;;;;;;;;;29.60;99.90;;;;;;4992650;28;20288;-60
2023/09/06 11:08:31;;;;;;;;;;;29.70;99.90;;;;;;4993108;28;19945;-59
2023/09/06 11:11:04;;;;;;;;;;;29.80;99.90;;;;;;4992455;28;19918;-59
2023/09/06 11:13:32;;;;;;;;;;;29.70;99.90;;;;;;4992566;28;19917;-59
2023/09/06 11:15:58;;;;;;;;;;;29.80;99.90;;;;;;4992119;28;20398;-58
2023/09/06 11:18:25;;;;;;;;;;;29.80;99.90;;;;;;4992703;28;19918;-58
2023/09/06 11:20:51;;;;;;;;;;;30.00;99.90;;;;;;4992681;28;20303;-59
2023/09/06 11:23:16;;;;;;;;;;;30.20;99.90;;;;;;4992685;28;19918;-59
2023/09/06 11:25:43;;;;;;;;;;;30.10;99.90;;;;;;4992641;28;19917;-58
2023/09/06 11:28:15;;;;;;;;;;;30.30;99.90;;;;;;4993557;28;19918;-58
2023/09/06 11:30:43;;;;;;;;;;;30.40;99.90;;;;;;4993403;28;20245;-58
2023/09/06 11:33:11;;;;;;;;;;;30.50;99.90;;;;;;4993839;28;19917;-59
2023/09/06 11:35:40;;;;;;;;;;;30.50;99.90;;;;;;4994297;28;19922;-59
2023/09/06 11:38:09;;;;;;;;;;;30.60;99.90;;;;;;4992965;28;19926;-59
2023/09/06 11:40:35;;;;;;;;;;;30.80;99.90;;;;;;4992282;28;20292;-59
2023/09/06 11:43:04;;;;;;;;;;;30.90;99.90;;;;;;4992795;28;19918;-58
2023/09/06 11:45:31;;;;;;;;;;;30.80;99.90;;;;;;4975112;28;19996;-61
2023/09/06 11:47:59;;;;;;;;;;;31.30;99.90;;;;;;4992585;28;19924;-61
2023/09/06 11:50:29;;;;;;;;;;;32.20;99.90;;;;;;4992422;28;20000;-62
2023/09/06 11:52:56;;;;;;;;;;;32.90;99.90;;;;;;4992371;28;20011;-62
2023/09/06 11:55:22;;;;;;;;;;;33.10;99.90;;;;;;4994368;28;19996;-62
2023/09/06 11:57:52;;;;;;;;;;;33.60;99.20;;;;;;4995613;28;19960;-62
2023/09/06 12:00:27;;;;;;;;;;;33.60;98.80;;;;;;4995796;28;20000;-62
2023/09/06 12:02:53;;;;;;;;;;;33.90;98.90;;;;;;4995847;28;20000;-62
2023/09/06 12:05:23;;;;;;;;;;;34.20;99.20;;;;;;4995483;28;20008;-62
2023/09/06 12:07:49;;;;;;;;;;;34.20;98.10;;;;;;4995430;28;19922;-61
2023/09/06 12:10:20;;;;;;;;;;;34.40;98.00;;;;;;4995527;28;20284;-62
2023/09/06 12:12:48;;;;;;;;;;;34.30;97.90;;;;;;4995335;28;19954;-61
2023/09/06 12:15:20;;;;;;;;;;;34.10;97.90;;;;;;4995378;28;19928;-60
2023/09/06 12:17:49;;;;;;;;;;;34.40;98.30;;;;;;4980325;28;19960;-61
2023/09/06 12:20:22;;;;;;;;;;;34.70;97.80;;;;;;4995324;28;19917;-61
2023/09/06 12:22:49;;;;;;;;;;;34.30;97.30;;;;;;4994967;28;19918;-62
2023/09/06 12:25:15;;;;;;;;;;;34.30;97.60;;;;;;4995175;28;19918;-62
2023/09/06 12:27:44;;;;;;;;;;;34.50;98.60;;;;;;4995117;28;19925;-62
2023/09/06 12:30:09;;;;;;;;;;;34.60;98.50;;;;;;4994965;28;19980;-61
2023/09/06 12:32:42;;;;;;;;;;;34.70;97.80;;;;;;4994965;28;19921;-62
2023/09/06 12:35:08;;;;;;;;;;;34.70;98.50;;;;;;4995118;28;20443;-62
2023/09/06 12:37:37;;;;;;;;;;;34.50;97.90;;;;;;4995470;28;19924;-63
2023/09/06 12:40:09;;;;;;;;;;;34.40;96.80;;;;;;4977454;28;19926;-62
2023/09/06 12:42:42;;;;;;;;;;;34.10;97.30;;;;;;4994996;28;19918;-61
2023/09/06 12:45:08;;;;;;;;;;;33.90;97.30;;;;;;4982191;28;19997;-61
2023/09/06 12:47:37;;;;;;;;;;;33.70;97.30;;;;;;4994748;28;20012;-62
2023/09/06 12:50:06;;;;;;;;;;;33.70;97.80;;;;;;4994767;28;19924;-61
2023/09/06 12:52:34;;;;;;;;;;;33.80;97.40;;;;;;4994862;28;19924;-61
2023/09/06 12:55:00;;;;;;;;;;;33.70;98.30;;;;;;4994511;28;19922;-61
2023/09/06 12:57:26;;;;;;;;;;;33.60;98.30;;;;;;4994605;28;19922;-61
2023/09/06 12:59:54;;;;;;;;;;;33.60;98.90;;;;;;4994542;28;19918;-61
2023/09/06 13:02:19;;;;;;;;;;;33.60;98.50;;;;;;4994299;28;19925;-63
2023/09/06 13:04:46;;;;;;;;;;;33.40;97.80;;;;;;4994608;28;19921;-62
2023/09/06 13:07:11;;;;;;;;;;;33.40;98.70;;;;;;4990738;28;20004;-61
2023/09/06 13:09:37;;;;;;;;;;;33.30;97.90;;;;;;4994486;28;20016;-61
2023/09/06 13:12:03;;;;;;;;;;;33.00;97.90;;;;;;4994329;28;20391;-62
2023/09/06 13:14:29;;;;;;;;;;;33.10;99.30;;;;;;4976877;28;20372;-62
2023/09/06 13:16:55;;;;;;;;;;;32.90;99.00;;;;;;4994146;28;19918;-62
2023/09/06 13:19:20;;;;;;;;;;;32.60;98.40;;;;;;4994316;28;19925;-61
2023/09/06 13:21:46;;;;;;;;;;;32.80;99.90;;;;;;4994240;28;19971;-61
2023/09/06 13:24:12;;;;;;;;;;;32.80;99.90;;;;;;4994026;28;20004;-62
2023/09/06 13:26:38;;;;;;;;;;;32.80;99.80;;;;;;4993914;28;19918;-61
2023/09/06 13:29:05;;;;;;;;;;;32.80;99.00;;;;;;4993710;28;19917;-62
2023/09/06 13:31:30;;;;;;;;;;;32.70;99.40;;;;;;4993809;28;19917;-61
2023/09/06 13:33:56;;;;;;;;;;;32.60;99.00;;;;;;4977090;28;19929;-62
2023/09/06 13:36:21;;;;;;;;;;;32.60;99.90;;;;;;4994137;28;19929;-62
2023/09/06 13:38:47;;;;;;;;;;;32.40;99.40;;;;;;4993875;28;20033;-61
2023/09/06 13:41:13;;;;;;;;;;;32.40;99.70;;;;;;4993858;28;19940;-62
2023/09/06 13:43:39;;;;;;;;;;;32.50;99.90;;;;;;4993725;28;19924;-61
2023/09/06 13:46:05;;;;;;;;;;;32.30;99.90;;;;;;4993819;28;19924;-62
2023/09/06 13:48:30;;;;;;;;;;;32.30;99.90;;;;;;4993496;28;20410;-61
2023/09/06 13:50:56;;;;;;;;;;;32.30;99.90;;;;;;4993527;28;19928;-61
2023/09/06 13:53:21;;;;;;;;;;;32.20;99.80;;;;;;4993421;28;19960;-62
2023/09/06 13:55:47;;;;;;;;;;;32.20;99.70;;;;;;4992461;28;20009;-61
2023/09/06 13:58:13;;;;;;;;;;;32.00;99.90;;;;;;4993528;28;19964;-61
2023/09/06 14:00:39;;;;;;;;;;;32.00;99.90;;;;;;4993203;28;19917;-60
2023/09/06 14:03:04;;;;;;;;;;;32.00;99.90;;;;;;4993197;28;19918;-62
2023/09/06 14:05:31;;;;;;;;;;;32.00;99.90;;;;;;4993438;28;19925;-63
2023/09/06 14:07:57;;;;;;;;;;;31.90;99.80;;;;;;4987148;28;19925;-61
2023/09/06 14:10:22;;;;;;;;;;;31.90;99.90;;;;;;4984417;28;19964;-61
2023/09/06 14:12:48;;;;;;;;;;;32.00;99.90;;;;;;4988554;28;19932;-61
2023/09/06 14:15:14;;;;;;;;;;;31.90;99.70;;;;;;4989632;28;20380;-60